Time,TemperatureF,DewpointF,PressureIn,WindDirection,WindDirectionDegrees,WindSpeedMPH,WindSpeedGustMPH,Humidity,HourlyPrecipIn,Conditions,Clouds,dailyrainin,SolarRadiationWatts/m^2,SoftwareType,DateUTC
2013-09-10 00:09:00,67.7,58.7,29.77,NW,319,0.0,0.0,73,0.00,,,0.00,0,Wunderground v.1.15,2013-09-10 07:09:00,
2013-09-10 00:19:00,67.4,59.2,29.77,NW,319,0.0,0.0,75,0.00,,,0.00,0,Wunderground v.1.15,2013-09-10 07:19:00,
2013-09-10 00:24:00,67.2,59.4,29.76,NW,319,0.0,0.0,76,0.00,,,0.00,0,Wunderground v.1.15,2013-09-10 07:24:00,
2013-09-10 00:29:00,67.0,59.2,29.77,NW,319,1.0,1.0,76,0.00,,,0.00,0,Wunderground v.1.15,2013-09-10 07:29:00,
2013-09-10 00:39:00,67.0,58.8,29.77,NW,319,0.0,0.0,75,0.00,,,0.00,0,Wunderground v.1.15,2013-09-10 07:39:00,
2013-09-10 00:44:00,66.9,59.5,29.77,NW,319,1.0,1.0,77,0.00,,,0.00,0,Wunderground v.1.15,2013-09-10 07:44:00,
2013-09-10 00:49:00,66.7,59.6,29.76,NW,319,2.0,2.0,78,0.00,,,0.00,0,Wunderground v.1.15,2013-09-10 07:49:00,
2013-09-10 00:54:00,66.5,58.7,29.77,NW,319,0.0,2.0,76,0.00,,,0.00,0,Wunderground v.1.15,2013-09-10 07:54:00,
2013-09-10 00:59:00,66.3,58.9,29.77,NW,319,0.0,0.0,77,0.00,,,0.00,0,Wunderground v.1.15,2013-09-10 07:59:00,
2013-09-10 01:09:00,66.0,59.7,29.77,NW,319,1.0,1.0,80,0.00,,,0.00,0,Wunderground v.1.15,2013-09-10 08:09:00,
2013-09-10 01:19:00,65.7,60.1,29.76,NW,319,0.0,0.0,82,0.00,,,0.00,0,Wunderground v.1.15,2013-09-10 08:19:00,
2013-09-10 01:24:00,65.5,59.9,29.76,NW,319,0.0,0.0,82,0.00,,,0.00,0,Wunderground v.1.15,2013-09-10 08:24:00,
2013-09-10 01:29:00,65.4,60.1,29.77,NW,319,0.0,0.0,83,0.00,,,0.00,0,Wunderground v.1.15,2013-09-10 08:29:00,
2013-09-10 01:39:00,65.2,60.6,29.77,NW,319,0.0,0.0,85,0.00,,,0.00,0,Wunderground v.1.15,2013-09-10 08:39:00,
2013-09-10 01:44:00,65.0,60.4,29.77,NW,319,0.0,0.0,85,0.00,,,0.00,0,Wunderground v.1.15,2013-09-10 08:44:00,
2013-09-10 01:49:00,64.9,60.3,29.77,NW,319,0.0,0.0,85,0.00,,,0.00,0,Wunderground v.1.15,2013-09-10 08:49:00,
2013-09-10 01:59:00,64.8,60.5,29.77,NW,319,2.0,2.0,86,0.00,,,0.00,0,Wunderground v.1.15,2013-09-10 08:59:00,
2013-09-10 02:04:00,64.9,60.6,29.77,NW,319,0.0,2.0,86,0.00,,,0.00,0,Wunderground v.1.15,2013-09-10 09:04:00,
2013-09-10 02:09:00,64.8,60.5,29.77,NW,310,0.0,0.0,86,0.00,,,0.00,0,Wunderground v.1.15,2013-09-10 09:09:00,
2013-09-10 02:19:00,64.6,60.6,29.76,WSW,240,0.0,0.0,87,0.00,,,0.00,0,Wunderground v.1.15,2013-09-10 09:19:00,
2013-09-10 02:29:00,64.6,61.0,29.76,SW,236,0.0,0.0,88,0.00,,,0.00,0,Wunderground v.1.15,2013-09-10 09:29:00,
2013-09-10 02:34:00,64.6,61.0,29.76,SW,230,1.0,1.0,88,0.00,,,0.00,0,Wunderground v.1.15,2013-09-10 09:34:00,
2013-09-10 02:39:00,64.5,61.2,29.76,SW,230,0.0,0.0,89,0.00,,,0.00,0,Wunderground v.1.15,2013-09-10 09:39:00,
2013-09-10 02:44:00,64.3,61.0,29.76,SW,230,0.0,0.0,89,0.00,,,0.00,0,Wunderground v.1.15,2013-09-10 09:44:00,
2013-09-10 02:49:00,64.2,60.9,29.76,SW,230,0.0,0.0,89,0.00,,,0.00,0,Wunderground v.1.15,2013-09-10 09:49:00,
2013-09-10 02:59:00,64.1,61.1,29.76,South,186,2.0,2.0,90,0.00,,,0.00,0,Wunderground v.1.15,2013-09-10 09:59:00,
2013-09-10 03:04:00,64.1,61.1,29.76,South,186,0.0,2.0,90,0.00,,,0.00,0,Wunderground v.1.15,2013-09-10 10:04:00,
2013-09-10 03:09:00,64.1,61.1,29.76,South,186,1.0,1.0,90,0.00,,,0.00,0,Wunderground v.1.15,2013-09-10 10:09:00,
2013-09-10 03:19:00,63.9,60.9,29.76,South,186,0.0,0.0,90,0.00,,,0.00,0,Wunderground v.1.15,2013-09-10 10:19:00,
2013-09-10 03:29:00,63.6,60.9,29.76,South,178,1.0,1.0,91,0.00,,,0.00,0,Wunderground v.1.15,2013-09-10 10:29:00,
2013-09-10 03:34:00,63.5,60.8,29.76,South,178,1.0,1.0,91,0.00,,,0.00,0,Wunderground v.1.15,2013-09-10 10:34:00,
2013-09-10 03:39:00,63.5,60.8,29.76,South,178,2.0,2.0,91,0.00,,,0.00,0,Wunderground v.1.15,2013-09-10 10:39:00,
2013-09-10 03:49:00,63.3,60.0,29.76,South,178,1.0,1.0,89,0.00,,,0.00,0,Wunderground v.1.15,2013-09-10 10:49:00,
2013-09-10 03:54:00,63.2,59.9,29.76,South,178,1.0,1.0,89,0.00,,,0.00,0,Wunderground v.1.15,2013-09-10 10:54:00,
2013-09-10 03:59:00,63.1,59.8,29.76,South,178,1.0,1.0,89,0.00,,,0.00,0,Wunderground v.1.15,2013-09-10 10:59:00,
2013-09-10 04:09:00,63.0,60.0,29.76,South,178,0.0,0.0,90,0.00,,,0.00,0,Wunderground v.1.15,2013-09-10 11:09:00,
2013-09-10 04:19:00,62.8,59.8,29.76,South,178,2.0,2.0,90,0.00,,,0.00,0,Wunderground v.1.15,2013-09-10 11:19:00,
2013-09-10 04:24:00,62.6,59.9,29.76,South,178,0.0,2.0,91,0.00,,,0.00,0,Wunderground v.1.15,2013-09-10 11:24:00,
2013-09-10 04:29:00,62.4,60.0,29.76,South,178,0.0,0.0,92,0.00,,,0.00,0,Wunderground v.1.15,2013-09-10 11:29:00,
2013-09-10 04:39:00,62.2,60.2,29.76,South,178,0.0,0.0,93,0.00,,,0.00,0,Wunderground v.1.15,2013-09-10 11:39:00,
2013-09-10 04:49:00,62.0,60.6,29.76,South,178,1.0,1.0,95,0.00,,,0.00,0,Wunderground v.1.15,2013-09-10 11:49:00,
2013-09-10 04:54:00,61.9,60.5,29.77,South,179,1.0,1.0,95,0.00,,,0.00,0,Wunderground v.1.15,2013-09-10 11:54:00,
2013-09-10 04:59:00,61.8,60.4,29.76,South,179,1.0,1.0,95,0.00,,,0.00,0,Wunderground v.1.15,2013-09-10 11:59:00,
2013-09-10 05:09:00,61.5,61.2,29.77,South,179,1.0,1.0,99,0.00,,,0.00,0,Wunderground v.1.15,2013-09-10 12:09:00,
2013-09-10 05:19:00,61.3,60.4,29.77,South,179,0.0,0.0,97,0.00,,,0.00,0,Wunderground v.1.15,2013-09-10 12:19:00,
2013-09-10 05:29:00,61.1,60.2,29.77,SSW,199,0.0,0.0,97,0.00,,,0.00,0,Wunderground v.1.15,2013-09-10 12:29:00,
2013-09-10 05:34:00,61.0,60.1,29.77,SSW,193,1.0,1.0,97,0.00,,,0.00,0,Wunderground v.1.15,2013-09-10 12:34:00,
2013-09-10 05:44:00,61.0,60.4,29.77,SSW,197,1.0,1.0,98,0.00,,,0.00,0,Wunderground v.1.15,2013-09-10 12:44:00,
2013-09-10 05:49:00,61.0,60.4,29.77,SSW,199,1.0,1.0,98,0.00,,,0.00,0,Wunderground v.1.15,2013-09-10 12:49:00,
2013-09-10 05:59:00,60.9,60.3,29.77,South,180,2.0,2.0,98,0.00,,,0.00,0,Wunderground v.1.15,2013-09-10 12:59:00,
2013-09-10 06:04:00,60.8,60.2,29.77,SSW,204,0.0,2.0,98,0.00,,,0.00,0,Wunderground v.1.15,2013-09-10 13:04:00,
2013-09-10 06:14:00,60.6,60.3,29.78,SSW,198,1.0,3.0,99,0.00,,,0.00,0,Wunderground v.1.15,2013-09-10 13:14:00,
2013-09-10 06:19:00,60.6,60.0,29.78,SSW,201,3.0,3.0,98,0.00,,,0.00,0,Wunderground v.1.15,2013-09-10 13:19:00,
2013-09-10 06:29:00,60.3,60.0,29.78,SSW,193,1.0,1.0,99,0.00,,,0.00,0,Wunderground v.1.15,2013-09-10 13:29:00,
2013-09-10 06:34:00,60.3,60.0,29.78,SSW,196,1.0,1.0,99,0.00,,,0.00,0,Wunderground v.1.15,2013-09-10 13:34:00,
2013-09-10 06:39:00,60.3,60.3,29.79,SSW,196,2.0,2.0,100,0.00,,,0.00,0,Wunderground v.1.15,2013-09-10 13:39:00,
2013-09-10 06:54:00,60.3,60.3,29.79,SSW,197,0.0,0.0,100,0.00,,,0.00,0,Wunderground v.1.15,2013-09-10 13:54:00,
2013-09-10 06:59:00,60.3,60.3,29.79,SSW,198,2.0,2.0,100,0.00,,,0.00,0,Wunderground v.1.15,2013-09-10 13:59:00,
2013-09-10 07:09:00,60.2,60.2,29.80,SSW,198,0.0,0.0,100,0.00,,,0.00,0,Wunderground v.1.15,2013-09-10 14:09:00,
2013-09-10 07:19:00,60.2,60.2,29.80,SSW,198,0.0,0.0,100,0.00,,,0.00,0,Wunderground v.1.15,2013-09-10 14:19:00,
2013-09-10 07:29:00,60.1,60.1,29.80,WNW,283,3.0,3.0,100,0.00,,,0.00,0,Wunderground v.1.15,2013-09-10 14:29:00,
2013-09-10 07:34:00,59.9,59.9,29.80,WNW,285,1.0,3.0,100,0.00,,,0.00,0,Wunderground v.1.15,2013-09-10 14:34:00,
2013-09-10 07:39:00,59.8,59.8,29.80,WNW,285,2.0,2.0,100,0.00,,,0.00,0,Wunderground v.1.15,2013-09-10 14:39:00,
2013-09-10 07:49:00,59.9,59.9,29.81,WNW,285,1.0,1.0,100,0.00,,,0.00,0,Wunderground v.1.15,2013-09-10 14:49:00,
2013-09-10 07:59:00,60.1,60.1,29.81,WNW,285,2.0,2.0,100,0.00,,,0.00,0,Wunderground v.1.15,2013-09-10 14:59:00,
2013-09-10 08:04:00,60.2,60.2,29.81,WNW,285,0.0,2.0,100,0.00,,,0.00,0,Wunderground v.1.15,2013-09-10 15:04:00,
2013-09-10 08:09:00,60.3,60.3,29.81,WNW,285,1.0,1.0,100,0.00,,,0.00,0,Wunderground v.1.15,2013-09-10 15:09:00,
2013-09-10 08:14:00,60.6,60.6,29.82,WNW,285,1.0,1.0,100,0.00,,,0.00,0,Wunderground v.1.15,2013-09-10 15:14:00,
2013-09-10 08:19:00,60.8,60.8,29.82,WNW,285,0.0,0.0,100,0.00,,,0.00,0,Wunderground v.1.15,2013-09-10 15:19:00,
2013-09-10 08:29:00,61.4,61.4,29.82,WNW,285,1.0,1.0,100,0.00,,,0.00,0,Wunderground v.1.15,2013-09-10 15:29:00,
2013-09-10 08:39:00,62.1,62.1,29.82,NW,305,2.0,2.0,100,0.00,,,0.00,0,Wunderground v.1.15,2013-09-10 15:39:00,
2013-09-10 08:44:00,62.4,62.1,29.82,NW,305,2.0,2.0,99,0.00,,,0.00,0,Wunderground v.1.15,2013-09-10 15:44:00,
2013-09-10 08:49:00,62.8,62.5,29.82,WNW,297,0.0,0.0,99,0.00,,,0.00,0,Wunderground v.1.15,2013-09-10 15:49:00,
2013-09-10 08:59:00,63.1,61.9,29.82,South,187,1.0,1.0,96,0.00,,,0.00,0,Wunderground v.1.15,2013-09-10 15:59:00,
2013-09-10 09:04:00,63.3,62.1,29.83,South,181,1.0,1.0,96,0.00,,,0.00,0,Wunderground v.1.15,2013-09-10 16:04:00,
2013-09-10 09:09:00,63.7,62.2,29.83,SSW,212,1.0,1.0,95,0.00,,,0.00,0,Wunderground v.1.15,2013-09-10 16:09:00,
2013-09-10 09:19:00,64.5,62.4,29.83,South,190,0.0,0.0,93,0.00,,,0.00,0,Wunderground v.1.15,2013-09-10 16:19:00,
2013-09-10 09:24:00,64.8,62.4,29.83,South,177,2.0,2.0,92,0.00,,,0.00,0,Wunderground v.1.15,2013-09-10 16:24:00,
2013-09-10 09:29:00,65.2,62.8,29.83,SSW,199,2.0,2.0,92,0.00,,,0.00,0,Wunderground v.1.15,2013-09-10 16:29:00,
2013-09-10 09:39:00,66.1,62.8,29.83,South,189,2.0,2.0,89,0.00,,,0.00,0,Wunderground v.1.15,2013-09-10 16:39:00,
2013-09-10 09:49:00,66.8,63.1,29.83,SSW,199,0.0,0.0,88,0.00,,,0.00,0,Wunderground v.1.15,2013-09-10 16:49:00,
2013-09-10 09:59:00,68.6,63.9,29.83,South,182,1.0,1.0,85,0.00,,,0.00,0,Wunderground v.1.15,2013-09-10 16:59:00,
2013-09-10 10:09:00,69.8,65.1,29.83,SSW,195,3.0,3.0,85,0.00,,,0.00,0,Wunderground v.1.15,2013-09-10 17:09:00,
2013-09-10 10:14:00,70.3,65.6,29.83,SSW,213,1.0,3.0,85,0.00,,,0.00,0,Wunderground v.1.15,2013-09-10 17:14:00,
2013-09-10 10:19:00,70.9,65.5,29.83,SSW,198,0.0,0.0,83,0.00,,,0.00,0,Wunderground v.1.15,2013-09-10 17:19:00,
2013-09-10 10:29:00,71.4,65.3,29.83,SSW,199,0.0,0.0,81,0.00,,,0.00,0,Wunderground v.1.15,2013-09-10 17:29:00,
2013-09-10 10:39:00,72.1,65.6,29.82,SW,235,2.0,2.0,80,0.00,,,0.00,0,Wunderground v.1.15,2013-09-10 17:39:00,
2013-09-10 10:49:00,72.6,65.3,29.82,SSW,194,3.0,3.0,78,0.00,,,0.00,0,Wunderground v.1.15,2013-09-10 17:49:00,
2013-09-10 10:59:00,72.9,65.3,29.82,SSW,194,2.0,2.0,77,0.00,,,0.00,0,Wunderground v.1.15,2013-09-10 17:59:00,
2013-09-10 11:09:00,73.6,65.9,29.83,WNW,286,0.0,0.0,77,0.00,,,0.00,0,Wunderground v.1.15,2013-09-10 18:09:00,
2013-09-10 11:14:00,74.2,65.8,29.83,SSW,209,0.0,0.0,75,0.00,,,0.00,0,Wunderground v.1.15,2013-09-10 18:14:00,
2013-09-10 11:19:00,75.1,65.9,29.83,South,190,3.0,3.0,73,0.00,,,0.00,0,Wunderground v.1.15,2013-09-10 18:19:00,
2013-09-10 11:29:00,75.7,65.6,29.83,WNW,283,2.0,2.0,71,0.00,,,0.00,0,Wunderground v.1.15,2013-09-10 18:29:00,
2013-09-10 11:39:00,76.2,65.3,29.83,NW,316,1.0,1.0,69,0.00,,,0.00,0,Wunderground v.1.15,2013-09-10 18:39:00,
2013-09-10 11:44:00,77.2,65.4,29.83,SW,217,1.0,1.0,67,0.00,,,0.00,0,Wunderground v.1.15,2013-09-10 18:44:00,
2013-09-10 11:49:00,77.1,64.9,29.83,SSW,200,1.0,1.0,66,0.00,,,0.00,0,Wunderground v.1.15,2013-09-10 18:49:00,
2013-09-10 11:59:00,77.9,64.3,29.83,South,190,0.0,0.0,63,0.00,,,0.00,0,Wunderground v.1.15,2013-09-10 18:59:00,
2013-09-10 12:09:00,78.5,64.9,29.83,SSW,199,3.0,3.0,63,0.00,,,0.00,0,Wunderground v.1.15,2013-09-10 19:09:00,
2013-09-10 12:14:00,78.5,64.4,29.83,South,187,4.0,4.0,62,0.00,,,0.00,0,Wunderground v.1.15,2013-09-10 19:14:00,
2013-09-10 12:19:00,78.8,64.7,29.83,SSW,204,2.0,2.0,62,0.00,,,0.00,0,Wunderground v.1.15,2013-09-10 19:19:00,
2013-09-10 12:29:00,79.9,64.3,29.83,SSW,205,5.0,5.0,59,0.00,,,0.00,0,Wunderground v.1.15,2013-09-10 19:29:00,
2013-09-10 12:39:00,80.0,63.9,29.82,SW,221,0.0,0.0,58,0.00,,,0.00,0,Wunderground v.1.15,2013-09-10 19:39:00,
2013-09-10 12:44:00,80.5,64.4,29.82,South,183,7.0,7.0,58,0.00,,,0.00,0,Wunderground v.1.15,2013-09-10 19:44:00,
2013-09-10 12:49:00,80.5,64.4,29.82,South,171,0.0,0.0,58,0.00,,,0.00,0,Wunderground v.1.15,2013-09-10 19:49:00,
2013-09-10 12:59:00,81.9,65.7,29.82,SSW,200,2.0,2.0,58,0.00,,,0.00,0,Wunderground v.1.15,2013-09-10 19:59:00,
2013-09-10 13:09:00,82.2,66.0,29.82,SSW,196,1.0,1.0,58,0.00,,,0.00,0,Wunderground v.1.15,2013-09-10 20:09:00,
2013-09-10 13:14:00,82.1,65.4,29.82,West,263,1.0,1.0,57,0.00,,,0.00,0,Wunderground v.1.15,2013-09-10 20:14:00,
2013-09-10 13:19:00,81.5,65.8,29.82,SW,220,1.0,1.0,59,0.00,,,0.00,0,Wunderground v.1.15,2013-09-10 20:19:00,
2013-09-10 13:29:00,81.1,65.4,29.82,WSW,258,1.0,1.0,59,0.00,,,0.00,0,Wunderground v.1.15,2013-09-10 20:29:00,
2013-09-10 13:34:00,80.8,65.1,29.82,WSW,240,2.0,2.0,59,0.00,,,0.00,0,Wunderground v.1.15,2013-09-10 20:34:00,
2013-09-10 13:39:00,81.3,66.1,29.82,SW,231,2.0,2.0,60,0.00,,,0.00,0,Wunderground v.1.15,2013-09-10 20:39:00,
2013-09-10 13:49:00,82.7,66.9,29.82,SW,227,1.0,1.0,59,0.00,,,0.00,0,Wunderground v.1.15,2013-09-10 20:49:00,
2013-09-10 13:59:00,82.8,67.5,29.81,WNW,292,3.0,3.0,60,0.00,,,0.00,0,Wunderground v.1.15,2013-09-10 20:59:00,
2013-09-10 14:04:00,82.2,67.4,29.81,WNW,282,1.0,3.0,61,0.00,,,0.00,0,Wunderground v.1.15,2013-09-10 21:04:00,
2013-09-10 14:09:00,82.4,67.1,29.81,WNW,285,1.0,1.0,60,0.00,,,0.00,0,Wunderground v.1.15,2013-09-10 21:09:00,
2013-09-10 14:19:00,82.6,67.3,29.81,South,183,0.0,0.0,60,0.00,,,0.00,0,Wunderground v.1.15,2013-09-10 21:19:00,
2013-09-10 14:24:00,82.7,67.4,29.81,WNW,292,2.0,2.0,60,0.00,,,0.00,0,Wunderground v.1.15,2013-09-10 21:24:00,
2013-09-10 14:29:00,82.2,66.9,29.81,South,190,0.0,0.0,60,0.00,,,0.00,0,Wunderground v.1.15,2013-09-10 21:29:00,
2013-09-10 14:39:00,82.6,67.3,29.81,North,352,2.0,2.0,60,0.00,,,0.00,0,Wunderground v.1.15,2013-09-10 21:39:00,
2013-09-10 14:44:00,82.7,66.9,29.81,South,182,1.0,2.0,59,0.00,,,0.00,0,Wunderground v.1.15,2013-09-10 21:44:00,
2013-09-10 14:49:00,82.7,67.4,29.81,SW,218,2.0,2.0,60,0.00,,,0.00,0,Wunderground v.1.15,2013-09-10 21:49:00,
2013-09-10 14:59:00,83.2,67.9,29.81,SSE,168,3.0,3.0,60,0.00,,,0.00,0,Wunderground v.1.15,2013-09-10 21:59:00,
2013-09-10 15:09:00,83.8,67.9,29.81,SW,235,0.0,0.0,59,0.00,,,0.00,0,Wunderground v.1.15,2013-09-10 22:09:00,
2013-09-10 15:14:00,83.8,67.9,29.81,WSW,249,2.0,2.0,59,0.00,,,0.00,0,Wunderground v.1.15,2013-09-10 22:14:00,
2013-09-10 15:24:00,83.7,67.8,29.81,WNW,287,5.0,5.0,59,0.00,,,0.00,0,Wunderground v.1.15,2013-09-10 22:24:00,
2013-09-10 15:29:00,83.3,68.4,29.81,South,189,2.0,2.0,61,0.00,,,0.00,0,Wunderground v.1.15,2013-09-10 22:29:00,
2013-09-10 15:34:00,83.6,68.2,29.81,WNW,289,0.0,2.0,60,0.00,,,0.00,0,Wunderground v.1.15,2013-09-10 22:34:00,
2013-09-10 15:39:00,83.8,68.4,29.81,WSW,244,1.0,1.0,60,0.00,,,0.00,0,Wunderground v.1.15,2013-09-10 22:39:00,
2013-09-10 15:49:00,82.4,68.1,29.81,WSW,258,1.0,1.0,62,0.00,,,0.00,0,Wunderground v.1.15,2013-09-10 22:49:00,
2013-09-10 15:59:00,83.3,68.4,29.81,WSW,254,0.0,0.0,61,0.00,,,0.00,0,Wunderground v.1.15,2013-09-10 22:59:00,
2013-09-10 16:04:00,83.2,68.3,29.81,WNW,284,1.0,1.0,61,0.00,,,0.00,0,Wunderground v.1.15,2013-09-10 23:04:00,
2013-09-10 16:14:00,82.5,68.2,29.81,South,173,1.0,1.0,62,0.00,,,0.00,0,Wunderground v.1.15,2013-09-10 23:14:00,
2013-09-10 16:19:00,82.1,67.8,29.81,SW,235,0.0,0.0,62,0.00,,,0.00,0,Wunderground v.1.15,2013-09-10 23:19:00,
2013-09-10 16:24:00,81.6,67.8,29.81,SW,221,1.0,1.0,63,0.00,,,0.00,0,Wunderground v.1.15,2013-09-10 23:24:00,
2013-09-10 16:29:00,81.2,67.9,29.81,West,275,1.0,1.0,64,0.00,,,0.00,0,Wunderground v.1.15,2013-09-10 23:29:00,
2013-09-10 16:39:00,80.3,67.5,29.81,SSW,193,5.0,5.0,65,0.00,,,0.00,0,Wunderground v.1.15,2013-09-10 23:39:00,
2013-09-10 16:44:00,80.0,67.2,29.81,WNW,284,2.0,5.0,65,0.00,,,0.00,0,Wunderground v.1.15,2013-09-10 23:44:00,
2013-09-10 16:49:00,80.0,67.2,29.81,WSW,251,0.0,0.0,65,0.00,,,0.00,0,Wunderground v.1.15,2013-09-10 23:49:00,
2013-09-10 16:59:00,79.8,67.0,29.81,WNW,291,1.0,1.0,65,0.00,,,0.00,0,Wunderground v.1.15,2013-09-10 23:59:00,
2013-09-10 17:04:00,79.7,66.9,29.81,WNW,292,1.0,1.0,65,0.00,,,0.00,0,Wunderground v.1.15,2013-09-11 00:04:00,
2013-09-10 17:09:00,79.6,67.2,29.81,NW,314,5.0,5.0,66,0.00,,,0.00,0,Wunderground v.1.15,2013-09-11 00:09:00,
2013-09-10 17:19:00,77.5,66.9,29.82,WNW,302,6.0,6.0,70,0.00,,,0.00,0,Wunderground v.1.15,2013-09-11 00:19:00,
2013-09-10 17:24:00,76.6,66.5,29.82,WNW,297,1.0,6.0,71,0.00,,,0.00,0,Wunderground v.1.15,2013-09-11 00:24:00,
2013-09-10 17:29:00,76.3,66.6,29.82,WNW,289,3.0,3.0,72,0.00,,,0.00,0,Wunderground v.1.15,2013-09-11 00:29:00,
2013-09-10 17:39:00,75.5,66.2,29.82,NNW,329,7.0,7.0,73,0.00,,,0.00,0,Wunderground v.1.15,2013-09-11 00:39:00,
2013-09-10 17:49:00,74.4,66.0,29.82,WNW,303,1.0,1.0,75,0.00,,,0.00,0,Wunderground v.1.15,2013-09-11 00:49:00,
2013-09-10 17:54:00,74.6,66.1,29.82,NW,312,6.0,6.0,75,0.00,,,0.00,0,Wunderground v.1.15,2013-09-11 00:54:00,
2013-09-10 18:04:00,74.7,66.2,29.83,WNW,299,4.0,8.0,75,0.00,,,0.00,0,Wunderground v.1.15,2013-09-11 01:04:00,
2013-09-10 18:09:00,74.1,65.7,29.83,NW,319,6.0,6.0,75,0.00,,,0.00,0,Wunderground v.1.15,2013-09-11 01:09:00,
2013-09-10 18:14:00,73.9,65.9,29.83,WNW,296,10.0,10.0,76,0.00,,,0.00,0,Wunderground v.1.15,2013-09-11 01:14:00,
2013-09-10 18:19:00,73.6,65.6,29.83,WNW,299,0.0,0.0,76,0.00,,,0.00,0,Wunderground v.1.15,2013-09-11 01:19:00,
2013-09-10 18:29:00,72.4,65.2,29.84,WNW,294,1.0,1.0,78,0.00,,,0.00,0,Wunderground v.1.15,2013-09-11 01:29:00,
2013-09-10 18:34:00,72.1,65.2,29.84,NW,310,1.0,1.0,79,0.00,,,0.00,0,Wunderground v.1.15,2013-09-11 01:34:00,
2013-09-10 18:39:00,72.1,65.2,29.84,NW,318,6.0,6.0,79,0.00,,,0.00,0,Wunderground v.1.15,2013-09-11 01:39:00,
2013-09-10 18:49:00,71.1,64.6,29.84,NNW,327,3.0,3.0,80,0.00,,,0.00,0,Wunderground v.1.15,2013-09-11 01:49:00,
2013-09-10 18:54:00,70.6,64.1,29.84,WNW,302,7.0,7.0,80,0.00,,,0.00,0,Wunderground v.1.15,2013-09-11 01:54:00,
2013-09-10 18:59:00,70.1,64.3,29.85,NW,314,4.0,4.0,82,0.00,,,0.00,0,Wunderground v.1.15,2013-09-11 01:59:00,
2013-09-10 19:09:00,69.3,63.6,29.85,NW,312,8.0,8.0,82,0.00,,,0.00,0,Wunderground v.1.15,2013-09-11 02:09:00,
2013-09-10 19:14:00,68.9,63.9,29.85,WNW,300,6.0,8.0,84,0.00,,,0.00,0,Wunderground v.1.15,2013-09-11 02:14:00,
2013-09-10 19:19:00,68.6,63.9,29.85,WNW,301,0.0,0.0,85,0.00,,,0.00,0,Wunderground v.1.15,2013-09-11 02:19:00,
2013-09-10 19:29:00,68.2,63.5,29.85,WNW,297,4.0,4.0,85,0.00,,,0.00,0,Wunderground v.1.15,2013-09-11 02:29:00,
2013-09-10 19:34:00,68.0,63.3,29.86,WNW,300,4.0,4.0,85,0.00,,,0.00,0,Wunderground v.1.15,2013-09-11 02:34:00,
2013-09-10 19:44:00,67.6,63.3,29.86,WNW,286,4.0,4.0,86,0.00,,,0.00,0,Wunderground v.1.15,2013-09-11 02:44:00,
2013-09-10 19:49:00,67.4,63.1,29.86,NW,306,2.0,2.0,86,0.00,,,0.00,0,Wunderground v.1.15,2013-09-11 02:49:00,
2013-09-10 19:59:00,67.0,62.7,29.87,NW,310,6.0,6.0,86,0.00,,,0.00,0,Wunderground v.1.15,2013-09-11 02:59:00,
2013-09-10 20:09:00,66.6,61.9,29.87,WNW,293,5.0,5.0,85,0.00,,,0.00,0,Wunderground v.1.15,2013-09-11 03:09:00,
2013-09-10 20:14:00,66.4,62.1,29.87,NW,309,3.0,5.0,86,0.00,,,0.00,0,Wunderground v.1.15,2013-09-11 03:14:00,
2013-09-10 20:19:00,66.2,62.9,29.87,NW,305,5.0,5.0,89,0.00,,,0.00,0,Wunderground v.1.15,2013-09-11 03:19:00,
2013-09-10 20:29:00,65.9,62.9,29.88,NNW,332,2.0,2.0,90,0.00,,,0.00,0,Wunderground v.1.15,2013-09-11 03:29:00,
2013-09-10 20:34:00,65.8,62.8,29.88,NW,314,3.0,3.0,90,0.00,,,0.00,0,Wunderground v.1.15,2013-09-11 03:34:00,
2013-09-10 20:44:00,65.4,63.0,29.88,NW,324,2.0,2.0,92,0.00,,,0.00,0,Wunderground v.1.15,2013-09-11 03:44:00,
2013-09-10 20:49:00,65.2,62.8,29.88,WNW,302,3.0,3.0,92,0.00,,,0.00,0,Wunderground v.1.15,2013-09-11 03:49:00,
2013-09-10 20:54:00,65.0,62.6,29.89,WNW,302,3.0,3.0,92,0.00,,,0.00,0,Wunderground v.1.15,2013-09-11 03:54:00,
2013-09-10 20:59:00,64.8,61.8,29.89,NW,311,1.0,1.0,90,0.00,,,0.00,0,Wunderground v.1.15,2013-09-11 03:59:00,
2013-09-10 21:04:00,64.7,62.0,29.89,NW,308,1.0,1.0,91,0.00,,,0.00,0,Wunderground v.1.15,2013-09-11 04:04:00,
2013-09-10 21:09:00,64.5,62.4,29.89,WNW,299,2.0,2.0,93,0.00,,,0.00,0,Wunderground v.1.15,2013-09-11 04:09:00,
2013-09-10 21:14:00,64.4,62.0,29.89,NNW,330,3.0,3.0,92,0.00,,,0.00,0,Wunderground v.1.15,2013-09-11 04:14:00,
2013-09-10 21:19:00,64.2,62.1,29.89,WNW,294,5.0,5.0,93,0.00,,,0.00,0,Wunderground v.1.15,2013-09-11 04:19:00,
2013-09-10 21:24:00,64.1,62.3,29.89,NW,316,3.0,5.0,94,0.00,,,0.00,0,Wunderground v.1.15,2013-09-11 04:24:00,
2013-09-10 21:34:00,63.9,61.2,29.90,NW,304,2.0,2.0,91,0.00,,,0.00,0,Wunderground v.1.15,2013-09-11 04:34:00,
2013-09-10 21:39:00,63.9,61.5,29.90,NW,316,3.0,3.0,92,0.00,,,0.00,0,Wunderground v.1.15,2013-09-11 04:39:00,
2013-09-10 21:44:00,63.7,60.7,29.90,NW,308,4.0,4.0,90,0.00,,,0.00,0,Wunderground v.1.15,2013-09-11 04:44:00,
2013-09-10 21:49:00,63.6,60.9,29.90,NW,308,3.0,3.0,91,0.00,,,0.00,0,Wunderground v.1.15,2013-09-11 04:49:00,
2013-09-10 21:59:00,63.4,60.7,29.91,WNW,301,2.0,2.0,91,0.00,,,0.00,0,Wunderground v.1.15,2013-09-11 04:59:00,
2013-09-10 22:09:00,63.2,60.2,29.91,NW,312,2.0,2.0,90,0.00,,,0.00,0,Wunderground v.1.15,2013-09-11 05:09:00,
2013-09-10 22:14:00,63.1,59.8,29.91,NNW,331,5.0,5.0,89,0.00,,,0.00,0,Wunderground v.1.15,2013-09-11 05:14:00,
2013-09-10 22:19:00,63.0,59.7,29.91,NW,308,4.0,4.0,89,0.00,,,0.00,0,Wunderground v.1.15,2013-09-11 05:19:00,
2013-09-10 22:29:00,62.9,57.7,29.91,NW,309,3.0,3.0,83,0.00,,,0.00,0,Wunderground v.1.15,2013-09-11 05:29:00,
2013-09-10 22:39:00,62.7,57.1,29.91,NW,308,3.0,3.0,82,0.00,,,0.00,0,Wunderground v.1.15,2013-09-11 05:39:00,
2013-09-10 22:49:00,62.6,58.7,29.91,NW,314,0.0,0.0,87,0.00,,,0.00,0,Wunderground v.1.15,2013-09-11 05:49:00,
2013-09-10 22:54:00,62.5,59.2,29.91,NW,314,1.0,1.0,89,0.00,,,0.00,0,Wunderground v.1.15,2013-09-11 05:54:00,
2013-09-10 22:59:00,62.4,59.7,29.91,NW,314,2.0,2.0,91,0.00,,,0.00,0,Wunderground v.1.15,2013-09-11 05:59:00,
2013-09-10 23:09:00,62.2,59.8,29.91,NW,309,2.0,2.0,92,0.00,,,0.00,0,Wunderground v.1.15,2013-09-11 06:09:00,
2013-09-10 23:14:00,62.2,59.8,29.91,WNW,301,0.0,2.0,92,0.00,,,0.00,0,Wunderground v.1.15,2013-09-11 06:14:00,
2013-09-10 23:24:00,62.0,59.3,29.91,WNW,301,1.0,1.0,91,0.00,,,0.00,0,Wunderground v.1.15,2013-09-11 06:24:00,
2013-09-10 23:29:00,61.9,59.2,29.91,WNW,301,0.0,0.0,91,0.00,,,0.00,0,Wunderground v.1.15,2013-09-11 06:29:00,
2013-09-10 23:34:00,61.9,59.2,29.91,WNW,302,0.0,0.0,91,0.00,,,0.00,0,Wunderground v.1.15,2013-09-11 06:34:00,
2013-09-10 23:44:00,61.7,60.0,29.91,WNW,301,1.0,1.0,94,0.00,,,0.00,0,Wunderground v.1.15,2013-09-11 06:44:00,
2013-09-10 23:49:00,61.6,59.6,29.91,WNW,301,0.0,0.0,93,0.00,,,0.00,0,Wunderground v.1.15,2013-09-11 06:49:00,
2013-09-10 23:59:00,61.3,59.3,29.92,WNW,301,0.0,0.0,93,0.00,,,0.00,0,Wunderground v.1.15,2013-09-11 06:59:00,